Andersonville, Virginia
Current Conditions -  °F | °C
As of 9:35 AM on Friday 28 Nov 2014 (Local Time) from KFVX Reporting Station
Clear Clear  
Wind Chill:   Ceiling: Unl
Heat Index:   Visibility: 10mi
Dew Point: -5°   Wind: 5mph
Humidity: 52%   Direction: 360°N
Pressure: 30.34"   Gusts: NA
Location:  37.47°N, 78.57°W
Report Text: KFVX 281435Z AUTO 36004KT 10SM CLR 05/M05 A3034 RMK AO2 T00451047
Loading
Personal Weather Stations






























Interactive Weather Map New forecast layout! Learn more

10-Day Weather Forecast

Advertisements
Track Severe Weather on mobile